Airfield :
LOGIN :

Register | Disclaimer

   EN    FR    IT 

 










Legend :    VFR   Marginal VFR   IFR   Intensive IFR   Very Intensive IFR
Visi :
Ceiling :
>= 8 km
>= 3000ft
5 to 8 km
1000 to 3000 ft
1500m to 5 km
500 to 1000 ft
800 to 1500m
200 to 500 ft
< 800m
< 200 ft
Symbols :   Thunderstorms  Fog  Heavy snow  Heavy precipitations  Wind > 20 kt
SIGMETs :     Misc.  Thunderstorms  Icing  Turbulence  Mountain Waves  Volcanic Ashes






- Airport Elevation : 121 ft
- IATA code : HUY


EGNJ - Humberside

CURRENT METAR :
  • 221220Z 32014KT 9999 FEW032 13/06 Q1017

EXPIRED METARs :
  • 221150Z 30014KT 270V340 9999 FEW028 SCT032 13/06 Q1017
  • 221120Z 29014KT 9999 SCT025 BKN032 14/07 Q1017
  • 221050Z 28012KT 9999 FEW014 SCT025 13/07 Q1016
  • 221020Z 28011KT 9999 FEW010 SCT024 12/07 Q1016
  • 220950Z 27011KT 9999 FEW010 12/07 Q1015

TAF TAF EGNJ
Valid from the 22 at 12:00 until the 22 at 21:00 UTC


221105Z 2212/2221 26010KT 9999 SCT030
BECMG 2212/2215 34004KT
PROB30
TEMPO 2212/2219 6000 SHRA
ATIS : +44 1652 682 020



MET'MAP, your aeronautical weather chart ! - Copyright ORBIFLY December 2007 - Disclaimer

ORBIFLY MET'MAP TEAM :

Programming & Development : Alexandra Zaïnal
Concept & original design : Baudouin d'Aumeries
Assistance for programming : Marc-Olivier Méhu
Technical & hardware support : Manuel Goepfert

Contact : metmap@orbifly.com




SOURCES & CREDITS :

   NOAA